Time;durP1;ratioP1;P1;durP2;ratioP2;P2;SDS_P1;SDS_P2;PMS_P1;PMS_P2;Temp;Humidity;BMP_temperature;BMP_pressure;BME280_temperature;BME280_humidity;BME280_pressure;Samples;Min_cycle;Max_cycle;Signal;HPM_P1;HPM_P2
2022/09/09 00:01:36;;;;;;;15.68;10.07;;;17.40;99.90;;;;;;4148401;28;20092;-62
2022/09/09 00:04:10;;;;;;;12.55;9.88;;;17.30;99.90;;;;;;4160986;28;20029;-61
2022/09/09 00:06:21;;;;;;;14.32;10.85;;;17.20;99.90;;;;;;4153744;28;20433;-61
2022/09/09 00:08:47;;;;;;;12.57;10.98;;;17.10;99.90;;;;;;4144932;28;20042;-61
2022/09/09 00:10:59;;;;;;;15.25;10.68;;;17.10;99.90;;;;;;4144638;28;20085;-61
2022/09/09 00:13:19;;;;;;;13.50;10.07;;;17.10;99.90;;;;;;4145233;28;20157;-63
2022/09/09 00:15:36;;;;;;;15.70;11.68;;;17.20;99.90;;;;;;4144679;28;20049;-62
2022/09/09 00:17:59;;;;;;;14.35;10.65;;;17.10;99.90;;;;;;4147218;28;20080;-63
2022/09/09 00:20:05;;;;;;;14.50;11.93;;;17.20;99.90;;;;;;4160725;28;20477;-62
2022/09/09 00:22:22;;;;;;;14.82;11.18;;;17.10;99.90;;;;;;4161866;28;20080;-59
2022/09/09 00:24:38;;;;;;;12.35;10.73;;;17.20;99.90;;;;;;4154173;28;20088;-61
2022/09/09 00:26:48;;;;;;;15.57;10.00;;;17.20;99.90;;;;;;4145668;28;20135;-62
2022/09/09 00:28:56;;;;;;;14.77;11.18;;;17.10;99.90;;;;;;4144557;28;20034;-62
2022/09/09 00:31:08;;;;;;;13.50;11.05;;;17.10;99.90;;;;;;4145710;28;20092;-63
2022/09/09 00:33:15;;;;;;;11.48;10.20;;;17.10;99.90;;;;;;4144211;28;20026;-62
2022/09/09 00:35:24;;;;;;;14.13;11.50;;;17.10;99.90;;;;;;4129382;28;20034;-61
2022/09/09 00:37:28;;;;;;;16.55;12.00;;;17.10;99.90;;;;;;4128023;28;20100;-61
2022/09/09 00:39:41;;;;;;;13.77;11.13;;;17.10;99.90;;;;;;4129442;28;20034;-62
2022/09/09 00:41:56;;;;;;;14.57;11.63;;;17.10;99.90;;;;;;4138067;28;20552;-63
2022/09/09 00:44:13;;;;;;;12.95;11.00;;;17.20;99.90;;;;;;4145646;28;20474;-61
2022/09/09 00:46:26;;;;;;;14.23;10.82;;;17.20;99.90;;;;;;4144477;28;20022;-61
2022/09/09 00:48:43;;;;;;;13.18;11.13;;;17.10;99.90;;;;;;4145493;28;20030;-62
2022/09/09 00:51:01;;;;;;;14.90;10.45;;;17.10;99.90;;;;;;4144490;28;20038;-63
2022/09/09 00:53:23;;;;;;;13.55;10.98;;;17.10;99.90;;;;;;4145555;28;20068;-63
2022/09/09 00:55:40;;;;;;;14.35;10.80;;;17.10;99.90;;;;;;4156538;28;20034;-62
2022/09/09 00:57:42;;;;;;;11.32;9.48;;;17.10;99.90;;;;;;4159028;28;20041;-61
2022/09/09 00:59:50;;;;;;;14.30;11.45;;;17.10;99.90;;;;;;4144092;28;20409;-62
2022/09/09 01:01:53;;;;;;;14.80;11.45;;;17.10;99.90;;;;;;4145540;28;20049;-63
2022/09/09 01:03:59;;;;;;;16.88;11.68;;;17.10;99.90;;;;;;4142359;28;20034;-62
2022/09/09 01:06:22;;;;;;;17.55;12.85;;;17.10;99.90;;;;;;4140087;28;20445;-61
2022/09/09 01:08:33;;;;;;;18.55;12.23;;;17.00;99.90;;;;;;4153074;28;20030;-61
2022/09/09 01:10:49;;;;;;;14.35;10.90;;;17.00;99.90;;;;;;4160441;28;20041;-64
2022/09/09 01:12:52;;;;;;;15.13;11.35;;;17.00;99.90;;;;;;4148520;28;20486;-62
2022/09/09 01:15:24;;;;;;;12.73;11.23;;;17.00;99.90;;;;;;4145258;28;20068;-61
2022/09/09 01:17:51;;;;;;;12.43;10.80;;;17.00;99.90;;;;;;4144352;28;20038;-62
2022/09/09 01:20:01;;;;;;;14.00;11.43;;;17.00;99.90;;;;;;4144569;28;20037;-63
2022/09/09 01:22:13;;;;;;;20.27;11.35;;;17.00;99.90;;;;;;4143239;28;20487;-62
2022/09/09 01:24:39;;;;;;;12.05;9.80;;;17.00;99.90;;;;;;4150812;28;20075;-62
2022/09/09 01:26:45;;;;;;;20.20;10.57;;;17.00;99.90;;;;;;4164235;28;20029;-61
2022/09/09 01:28:49;;;;;;;10.32;8.85;;;17.00;99.90;;;;;;4163571;28;20056;-62
2022/09/09 01:30:50;;;;;;;13.15;9.32;;;17.00;99.90;;;;;;4164107;28;20075;-63
2022/09/09 01:32:58;;;;;;;11.68;9.15;;;17.00;99.90;;;;;;4153141;28;20021;-61
2022/09/09 01:34:59;;;;;;;11.50;9.20;;;17.00;99.90;;;;;;4147630;28;20029;-62
2022/09/09 01:37:05;;;;;;;11.38;9.10;;;17.00;99.90;;;;;;4147699;28;20079;-62
2022/09/09 01:39:06;;;;;;;10.80;8.70;;;17.00;99.90;;;;;;4147244;28;20071;-61
2022/09/09 01:41:07;;;;;;;11.40;9.25;;;17.00;99.90;;;;;;4147724;28;20064;-63
2022/09/09 01:43:09;;;;;;;11.93;9.40;;;16.90;99.90;;;;;;4146774;28;20022;-62
2022/09/09 01:45:10;;;;;;;14.93;10.45;;;16.90;99.90;;;;;;4146562;28;20026;-61
2022/09/09 01:47:11;;;;;;;10.70;9.13;;;16.80;99.90;;;;;;4146669;28;20080;-63
2022/09/09 01:49:12;;;;;;;16.10;11.48;;;16.70;99.90;;;;;;4147751;28;20030;-61
2022/09/09 01:51:15;;;;;;;16.48;10.52;;;16.70;99.90;;;;;;4146758;28;20054;-63
2022/09/09 01:53:18;;;;;;;17.67;11.13;;;16.60;99.90;;;;;;4147878;28;20084;-62
2022/09/09 01:55:29;;;;;;;13.98;10.30;;;16.60;99.90;;;;;;4146811;28;20041;-61
2022/09/09 01:57:51;;;;;;;15.02;11.35;;;16.60;99.90;;;;;;4147880;28;20037;-61
2022/09/09 02:00:13;;;;;;;16.75;11.35;;;16.60;99.90;;;;;;4146411;28;20430;-61
2022/09/09 02:02:18;;;;;;;17.40;12.00;;;16.50;99.90;;;;;;4131665;28;20034;-62
2022/09/09 02:04:40;;;;;;;14.00;11.27;;;16.40;99.90;;;;;;4130237;28;20521;-64
2022/09/09 02:06:42;;;;;;;15.48;12.98;;;16.40;99.90;;;;;;4140524;28;20080;-60
2022/09/09 02:08:59;;;;;;;16.60;11.77;;;16.30;99.90;;;;;;4146435;28;20057;-62
2022/09/09 02:11:06;;;;;;;14.35;11.60;;;16.30;99.90;;;;;;4146819;28;20048;-61
2022/09/09 02:13:12;;;;;;;18.60;12.65;;;16.30;99.90;;;;;;4146219;28;20030;-62
2022/09/09 02:15:39;;;;;;;17.60;11.63;;;16.30;99.90;;;;;;4147364;28;20037;-63
2022/09/09 02:17:42;;;;;;;14.82;11.82;;;16.40;99.90;;;;;;4143786;28;20038;-60
2022/09/09 02:19:49;;;;;;;16.27;11.85;;;16.30;99.90;;;;;;4155888;28;20107;-60
2022/09/09 02:21:51;;;;;;;16.63;11.13;;;16.40;99.90;;;;;;4161201;28;20037;-61
2022/09/09 02:23:53;;;;;;;14.77;12.07;;;16.40;99.90;;;;;;4162335;28;20485;-61
2022/09/09 02:25:57;;;;;;;13.25;11.10;;;16.50;99.90;;;;;;4162682;28;20053;-63
2022/09/09 02:27:59;;;;;;;16.73;9.98;;;16.50;99.90;;;;;;4163866;28;20045;-60
2022/09/09 02:30:02;;;;;;;19.75;11.88;;;16.50;99.90;;;;;;4162438;28;20041;-63
2022/09/09 02:32:07;;;;;;;19.25;13.05;;;16.60;99.90;;;;;;4163609;28;20083;-60
2022/09/09 02:34:11;;;;;;;17.90;11.90;;;16.70;99.90;;;;;;4162488;28;20049;-62
2022/09/09 02:36:16;;;;;;;16.48;11.90;;;16.80;99.90;;;;;;4152498;28;20030;-62
2022/09/09 02:38:19;;;;;;;18.13;11.45;;;17.00;99.90;;;;;;4146107;28;20065;-61
2022/09/09 02:40:21;;;;;;;16.17;11.45;;;17.10;99.90;;;;;;4146946;28;20100;-61
2022/09/09 02:42:23;;;;;;;20.23;12.25;;;17.10;99.90;;;;;;4145892;28;20042;-60
2022/09/09 02:44:24;;;;;;;16.58;11.57;;;17.20;99.90;;;;;;4146733;28;20100;-61
2022/09/09 02:46:44;;;;;;;13.35;9.65;;;17.20;99.90;;;;;;4146151;28;20533;-62
2022/09/09 02:49:01;;;;;;;13.13;10.88;;;17.30;99.90;;;;;;4145299;28;20560;-60
2022/09/09 02:51:16;;;;;;;15.50;11.55;;;17.30;99.90;;;;;;4145601;28;20042;-61
2022/09/09 02:53:32;;;;;;;14.07;10.60;;;17.40;99.90;;;;;;4146777;28;20053;-61
2022/09/09 02:55:46;;;;;;;13.77;9.32;;;17.40;99.90;;;;;;4146016;28;20482;-61
2022/09/09 02:57:48;;;;;;;15.48;9.48;;;17.50;99.90;;;;;;4146535;28;20026;-61
2022/09/09 02:59:51;;;;;;;11.38;8.55;;;17.60;99.90;;;;;;4145652;28;20140;-62
2022/09/09 03:01:53;;;;;;;10.98;9.05;;;17.70;99.90;;;;;;4146323;28;20370;-63
2022/09/09 03:03:54;;;;;;;14.00;8.98;;;17.80;99.90;;;;;;4145759;28;20030;-62
2022/09/09 03:05:56;;;;;;;13.93;9.70;;;17.80;99.90;;;;;;4146159;28;20096;-61
2022/09/09 03:07:58;;;;;;;10.52;9.43;;;17.80;99.90;;;;;;4146158;28;20042;-61
2022/09/09 03:09:59;;;;;;;12.60;9.30;;;17.80;99.90;;;;;;4146199;28;20088;-63
2022/09/09 03:12:00;;;;;;;12.35;8.80;;;17.80;99.90;;;;;;4149281;28;20872;-59
2022/09/09 03:14:02;;;;;;;15.25;9.75;;;17.80;99.90;;;;;;4151081;28;20034;-62
2022/09/09 03:16:04;;;;;;;11.70;9.75;;;17.70;99.90;;;;;;4162396;28;20493;-62
2022/09/09 03:18:05;;;;;;;10.07;9.00;;;17.70;99.90;;;;;;4160481;28;20560;-62
2022/09/09 03:20:07;;;;;;;12.93;9.73;;;17.70;99.90;;;;;;4147310;28;20042;-63
2022/09/09 03:22:11;;;;;;;14.52;9.57;;;17.70;99.90;;;;;;4145155;28;20433;-62
2022/09/09 03:24:13;;;;;;;12.65;9.30;;;17.60;99.90;;;;;;4146889;28;20107;-64
2022/09/09 03:26:14;;;;;;;14.05;9.07;;;17.60;99.90;;;;;;4145014;28;20072;-61
2022/09/09 03:28:16;;;;;;;12.40;9.00;;;17.60;99.90;;;;;;4146363;28;20119;-62
2022/09/09 03:30:17;;;;;;;14.00;8.60;;;17.60;99.90;;;;;;4145384;28;20084;-67
2022/09/09 03:32:19;;;;;;;12.15;9.52;;;17.60;99.90;;;;;;4147706;28;20041;-65
2022/09/09 03:34:20;;;;;;;11.05;9.32;;;17.60;99.90;;;;;;4144940;28;20724;-64
2022/09/09 03:36:21;;;;;;;11.05;9.45;;;17.60;99.90;;;;;;4145618;28;20095;-61
2022/09/09 03:38:24;;;;;;;12.00;9.45;;;17.60;99.90;;;;;;4145488;28;20026;-64
2022/09/09 03:40:25;;;;;;;13.25;9.68;;;17.60;99.90;;;;;;4145728;28;20064;-64
2022/09/09 03:42:26;;;;;;;11.38;9.55;;;17.60;99.90;;;;;;4145419;28;20041;-64
2022/09/09 03:44:27;;;;;;;14.82;9.07;;;17.50;99.90;;;;;;4148363;28;20434;-65
2022/09/09 03:46:28;;;;;;;11.73;8.95;;;17.50;99.90;;;;;;4144495;28;20084;-62
2022/09/09 03:48:30;;;;;;;13.60;10.07;;;17.40;99.90;;;;;;4144256;28;20083;-63
2022/09/09 03:50:32;;;;;;;12.38;9.10;;;17.40;99.90;;;;;;4148537;28;20083;-61
2022/09/09 03:52:38;;;;;;;14.05;9.63;;;17.40;99.90;;;;;;4161072;28;20374;-64
2022/09/09 03:54:41;;;;;;;12.02;10.05;;;17.40;99.90;;;;;;4162402;28;20440;-63
2022/09/09 03:56:42;;;;;;;11.25;9.85;;;17.40;99.90;;;;;;4144620;28;20033;-65
2022/09/09 03:58:43;;;;;;;13.25;10.43;;;17.30;99.90;;;;;;4145826;28;20035;-63
2022/09/09 04:00:54;;;;;;;13.57;9.93;;;17.30;99.90;;;;;;4143426;28;20084;-64
2022/09/09 04:02:56;;;;;;;12.15;10.60;;;17.30;99.90;;;;;;4145734;28;20425;-66
2022/09/09 04:04:57;;;;;;;12.60;10.25;;;17.30;99.90;;;;;;4143140;28;20034;-66
2022/09/09 04:06:58;;;;;;;19.55;10.55;;;17.30;99.90;;;;;;4144706;28;20070;-65
2022/09/09 04:09:03;;;;;;;15.27;11.18;;;17.30;99.90;;;;;;4141415;28;20022;-64
2022/09/09 04:11:06;;;;;;;12.75;10.90;;;17.20;99.90;;;;;;4153145;28;20095;-63
2022/09/09 04:13:07;;;;;;;15.15;12.32;;;17.20;99.90;;;;;;4141073;28;20029;-61
2022/09/09 04:15:09;;;;;;;14.60;11.07;;;17.20;99.90;;;;;;4144747;28;20025;-63
2022/09/09 04:17:10;;;;;;;15.52;11.60;;;17.20;99.90;;;;;;4144546;28;20022;-62
2022/09/09 04:19:13;;;;;;;14.55;11.00;;;17.20;99.90;;;;;;4140530;28;20034;-63
2022/09/09 04:21:15;;;;;;;15.25;11.35;;;17.20;99.90;;;;;;4143577;28;20058;-63
2022/09/09 04:23:18;;;;;;;14.80;11.27;;;17.10;99.90;;;;;;4144198;28;20041;-62
2022/09/09 04:25:19;;;;;;;16.98;12.00;;;17.10;99.90;;;;;;4145621;28;20080;-63
2022/09/09 04:27:21;;;;;;;16.38;12.23;;;17.10;99.90;;;;;;4140488;28;20509;-63
2022/09/09 04:29:22;;;;;;;16.42;12.57;;;17.10;99.90;;;;;;4133708;28;20037;-64
2022/09/09 04:31:23;;;;;;;19.80;12.43;;;17.10;99.90;;;;;;4143669;28;20041;-63
2022/09/09 04:33:27;;;;;;;15.18;11.20;;;17.10;99.90;;;;;;4145053;28;20038;-63
2022/09/09 04:35:28;;;;;;;16.73;11.50;;;17.10;99.90;;;;;;4142978;28;20029;-64
2022/09/09 04:37:30;;;;;;;15.55;12.02;;;17.10;99.90;;;;;;4143238;28;20161;-66
2022/09/09 04:39:31;;;;;;;20.75;13.45;;;17.10;99.90;;;;;;4143267;28;20084;-67
2022/09/09 04:41:32;;;;;;;13.70;11.95;;;17.00;99.90;;;;;;4144514;28;20497;-67
2022/09/09 04:43:34;;;;;;;16.45;12.82;;;17.00;99.90;;;;;;4143833;28;20371;-66
2022/09/09 04:45:35;;;;;;;15.30;11.55;;;16.90;99.90;;;;;;4144122;28;20054;-62
2022/09/09 04:47:36;;;;;;;16.63;12.07;;;16.90;99.90;;;;;;4144340;28;20041;-63
2022/09/09 04:49:38;;;;;;;16.52;11.68;;;16.90;99.90;;;;;;4142802;28;20080;-67
2022/09/09 04:51:39;;;;;;;15.43;12.00;;;16.90;99.90;;;;;;4143747;28;20053;-63
2022/09/09 04:53:40;;;;;;;14.00;12.50;;;17.00;99.90;;;;;;4143691;28;20506;-66
2022/09/09 04:55:41;;;;;;;16.15;12.00;;;17.00;99.90;;;;;;4144934;28;20502;-61
2022/09/09 04:57:43;;;;;;;16.63;11.95;;;17.00;99.90;;;;;;4144101;28;20080;-66
2022/09/09 04:59:44;;;;;;;14.18;12.00;;;17.00;99.90;;;;;;4143499;28;20049;-63
2022/09/09 05:01:45;;;;;;;15.57;11.55;;;17.00;99.90;;;;;;4146911;28;20399;-64
2022/09/09 05:03:46;;;;;;;15.50;12.93;;;17.10;99.90;;;;;;4147286;28;20147;-66
2022/09/09 05:05:48;;;;;;;19.23;12.85;;;17.10;99.90;;;;;;4146907;28;20034;-63
2022/09/09 05:07:49;;;;;;;18.35;11.90;;;17.10;99.90;;;;;;4148170;28;20084;-68
2022/09/09 05:09:50;;;;;;;16.95;12.07;;;17.00;99.90;;;;;;4147448;28;20500;-64
2022/09/09 05:11:51;;;;;;;18.60;12.75;;;17.00;99.90;;;;;;4148089;28;20030;-62
2022/09/09 05:13:53;;;;;;;18.00;13.45;;;17.00;99.90;;;;;;4146853;28;20366;-64
2022/09/09 05:15:55;;;;;;;16.52;13.50;;;17.00;99.90;;;;;;4147631;28;20034;-64
2022/09/09 05:18:00;;;;;;;22.08;13.05;;;17.00;99.90;;;;;;4147138;28;20091;-64
2022/09/09 05:20:02;;;;;;;21.40;13.05;;;17.00;99.90;;;;;;4147386;28;20092;-64
2022/09/09 05:22:04;;;;;;;18.38;13.05;;;17.10;99.90;;;;;;4146852;28;20498;-64
2022/09/09 05:24:05;;;;;;;18.25;12.80;;;17.10;99.90;;;;;;4147278;28;20445;-65
2022/09/09 05:26:12;;;;;;;17.95;12.82;;;17.10;99.90;;;;;;4147510;28;20056;-64
2022/09/09 05:28:13;;;;;;;19.20;12.88;;;17.10;99.90;;;;;;4146678;28;20072;-65
2022/09/09 05:30:14;;;;;;;16.60;13.35;;;17.10;99.90;;;;;;4147625;28;20486;-63
2022/09/09 05:32:16;;;;;;;15.95;13.50;;;17.20;99.90;;;;;;4146469;28;20084;-64
2022/09/09 05:34:17;;;;;;;19.15;14.15;;;17.20;99.90;;;;;;4147990;28;20042;-64
2022/09/09 05:36:20;;;;;;;16.33;14.02;;;17.30;99.90;;;;;;4146145;28;20466;-65
2022/09/09 05:38:24;;;;;;;16.73;13.48;;;17.20;99.90;;;;;;4147548;28;20025;-64
2022/09/09 05:40:25;;;;;;;16.75;14.10;;;17.20;99.90;;;;;;4146467;28;20037;-64
2022/09/09 05:42:30;;;;;;;15.85;12.95;;;17.20;99.90;;;;;;4147828;28;20049;-67
2022/09/09 05:44:31;;;;;;;17.65;13.88;;;17.20;99.90;;;;;;4146629;28;20061;-64
2022/09/09 05:46:33;;;;;;;19.40;14.57;;;17.20;99.90;;;;;;4147634;28;20477;-64
2022/09/09 05:48:37;;;;;;;21.33;14.30;;;17.10;99.90;;;;;;4146551;28;20080;-63
2022/09/09 05:50:38;;;;;;;17.58;13.43;;;17.20;99.90;;;;;;4147365;28;20029;-64
2022/09/09 05:52:39;;;;;;;18.80;13.40;;;17.10;99.90;;;;;;4146649;28;20381;-63
2022/09/09 05:54:41;;;;;;;16.90;13.63;;;17.00;99.90;;;;;;4145727;28;20092;-63
2022/09/09 05:56:42;;;;;;;18.13;13.02;;;17.00;99.90;;;;;;4146651;28;20026;-64
2022/09/09 05:58:44;;;;;;;17.35;13.18;;;16.90;99.90;;;;;;4146641;28;20470;-63
2022/09/09 06:00:45;;;;;;;18.30;14.68;;;16.80;99.90;;;;;;4146933;28;20033;-63
2022/09/09 06:02:52;;;;;;;22.05;15.13;;;16.80;99.90;;;;;;4146581;28;20042;-65
2022/09/09 06:04:53;;;;;;;24.23;16.30;;;16.70;99.90;;;;;;4147097;28;20088;-65
2022/09/09 06:06:54;;;;;;;25.00;15.88;;;16.70;99.90;;;;;;4146343;28;21041;-64
2022/09/09 06:09:00;;;;;;;19.42;15.63;;;16.70;99.90;;;;;;4147097;28;20037;-65
2022/09/09 06:11:05;;;;;;;23.15;17.95;;;16.70;99.90;;;;;;4145521;28;20026;-64
2022/09/09 06:13:06;;;;;;;25.33;18.73;;;16.60;99.90;;;;;;4147533;28;20029;-64
2022/09/09 06:15:08;;;;;;;22.90;18.38;;;16.60;99.90;;;;;;4144955;28;20112;-68
2022/09/09 06:17:10;;;;;;;27.48;18.90;;;16.60;99.90;;;;;;4147134;28;20424;-65
2022/09/09 06:19:12;;;;;;;27.55;19.83;;;16.60;99.90;;;;;;4145913;28;20026;-64
2022/09/09 06:21:19;;;;;;;28.50;19.63;;;16.60;99.90;;;;;;4147221;28;20045;-64
2022/09/09 06:23:20;;;;;;;32.42;20.10;;;16.60;99.90;;;;;;4146267;28;20030;-65
2022/09/09 06:25:22;;;;;;;31.98;20.73;;;16.70;99.90;;;;;;4147392;28;20037;-65
2022/09/09 06:27:23;;;;;;;32.45;21.33;;;16.70;99.90;;;;;;4145823;28;20548;-64
2022/09/09 06:29:24;;;;;;;34.50;20.77;;;16.70;99.90;;;;;;4146780;28;20104;-64
2022/09/09 06:31:29;;;;;;;26.90;19.15;;;16.70;99.90;;;;;;4146151;28;20029;-63
2022/09/09 06:33:34;;;;;;;29.95;18.25;;;16.70;99.90;;;;;;4146325;28;20099;-64
2022/09/09 06:35:36;;;;;;;33.75;19.75;;;16.70;99.90;;;;;;4146266;28;20141;-64
2022/09/09 06:37:37;;;;;;;28.17;20.13;;;16.70;99.90;;;;;;4146167;28;20038;-63
2022/09/09 06:39:39;;;;;;;33.05;21.73;;;16.70;99.90;;;;;;4146715;28;20544;-64
2022/09/09 06:41:40;;;;;;;30.58;20.80;;;16.70;99.90;;;;;;4145629;28;20096;-66
2022/09/09 06:43:42;;;;;;;29.88;20.75;;;16.70;99.90;;;;;;4146726;28;20026;-64
2022/09/09 06:45:43;;;;;;;36.45;21.52;;;16.70;99.90;;;;;;4145634;28;20033;-64
2022/09/09 06:47:44;;;;;;;32.80;20.10;;;16.70;99.90;;;;;;4146659;28;20037;-67
2022/09/09 06:49:45;;;;;;;27.08;19.45;;;16.80;99.90;;;;;;4145659;28;20026;-67
2022/09/09 06:51:46;;;;;;;23.67;17.50;;;16.80;99.90;;;;;;4146470;28;20046;-63
2022/09/09 06:53:50;;;;;;;23.83;17.27;;;16.80;99.90;;;;;;4145834;28;20463;-67
2022/09/09 06:55:52;;;;;;;25.30;17.70;;;16.80;99.90;;;;;;4146708;28;20092;-67
2022/09/09 06:57:53;;;;;;;21.63;16.60;;;16.80;99.90;;;;;;4145448;28;20034;-67
2022/09/09 06:59:54;;;;;;;27.52;17.27;;;16.80;99.90;;;;;;4146628;28;20100;-67
2022/09/09 07:01:56;;;;;;;23.67;15.68;;;16.80;99.90;;;;;;4145432;28;20045;-63
2022/09/09 07:03:59;;;;;;;19.10;15.90;;;16.80;99.90;;;;;;4146079;28;20033;-68
2022/09/09 07:06:00;;;;;;;20.35;15.15;;;16.90;99.90;;;;;;4145501;28;20076;-66
2022/09/09 07:08:02;;;;;;;20.27;16.40;;;16.90;99.90;;;;;;4145764;28;20026;-67
2022/09/09 07:10:04;;;;;;;23.15;15.85;;;17.00;99.90;;;;;;4145794;28;20034;-65
2022/09/09 07:12:06;;;;;;;21.05;15.73;;;17.10;99.90;;;;;;4145468;28;20033;-65
2022/09/09 07:14:08;;;;;;;24.77;16.13;;;17.10;99.90;;;;;;4145985;28;20100;-66
2022/09/09 07:16:15;;;;;;;21.88;15.55;;;17.10;99.90;;;;;;4145076;28;20076;-63
2022/09/09 07:18:16;;;;;;;18.63;15.93;;;17.20;99.90;;;;;;4146170;28;21147;-64
2022/09/09 07:20:17;;;;;;;20.52;15.38;;;17.20;99.90;;;;;;4145049;28;20041;-63
2022/09/09 07:22:19;;;;;;;19.95;15.90;;;17.20;99.90;;;;;;4143895;28;20054;-65
2022/09/09 07:24:21;;;;;;;22.10;15.77;;;17.30;99.90;;;;;;4144488;28;20046;-65
2022/09/09 07:26:25;;;;;;;19.20;15.95;;;17.30;99.90;;;;;;4145867;28;20473;-62
2022/09/09 07:28:27;;;;;;;18.33;13.27;;;17.30;99.90;;;;;;4144883;28;20524;-62
2022/09/09 07:30:28;;;;;;;17.33;14.63;;;17.30;99.90;;;;;;4146025;28;20141;-65
2022/09/09 07:32:30;;;;;;;18.63;14.65;;;17.40;99.90;;;;;;4145276;28;20042;-65
2022/09/09 07:34:31;;;;;;;19.70;14.95;;;17.40;99.90;;;;;;4145919;28;20521;-64
2022/09/09 07:36:38;;;;;;;18.10;15.13;;;17.50;99.90;;;;;;4144589;28;20041;-65
2022/09/09 07:38:47;;;;;;;18.88;14.38;;;17.50;99.90;;;;;;4145811;28;20026;-67
2022/09/09 07:40:48;;;;;;;16.33;14.10;;;17.50;99.90;;;;;;4145060;28;20038;-66
2022/09/09 07:42:50;;;;;;;17.58;14.10;;;17.60;99.90;;;;;;4145285;28;20049;-65
2022/09/09 07:44:54;;;;;;;15.73;12.93;;;17.60;99.90;;;;;;4144790;28;20092;-64
2022/09/09 07:46:55;;;;;;;19.70;13.23;;;17.60;99.90;;;;;;4145238;28;20046;-66
2022/09/09 07:48:58;;;;;;;15.13;12.48;;;17.70;99.90;;;;;;4145229;28;20536;-65
2022/09/09 07:51:11;;;;;;;16.95;12.55;;;17.70;99.90;;;;;;4144511;28;20421;-63
2022/09/09 07:53:12;;;;;;;16.10;13.45;;;17.80;99.90;;;;;;4145403;28;20065;-64
2022/09/09 07:55:14;;;;;;;18.60;14.23;;;17.90;99.90;;;;;;4144685;28;20049;-68
2022/09/09 07:57:16;;;;;;;18.10;13.00;;;18.00;99.90;;;;;;4145518;28;20026;-66
2022/09/09 07:59:18;;;;;;;17.02;14.00;;;18.10;99.90;;;;;;4144330;28;20042;-67
2022/09/09 08:01:25;;;;;;;18.58;13.55;;;18.20;99.90;;;;;;4145345;28;20387;-63
2022/09/09 08:03:26;;;;;;;18.65;13.45;;;18.20;99.90;;;;;;4144376;28;20034;-64
2022/09/09 08:05:28;;;;;;;26.05;13.02;;;18.30;99.90;;;;;;4145472;28;20026;-65
2022/09/09 08:07:29;;;;;;;17.92;13.40;;;18.30;99.90;;;;;;4143123;28;20541;-67
2022/09/09 08:09:32;;;;;;;14.43;11.13;;;18.40;99.90;;;;;;4145365;28;20030;-66
2022/09/09 08:11:33;;;;;;;12.55;11.05;;;18.40;99.90;;;;;;4144244;28;20421;-65
2022/09/09 08:13:36;;;;;;;14.10;11.43;;;18.50;99.90;;;;;;4145348;28;20068;-65
2022/09/09 08:15:37;;;;;;;16.90;11.90;;;18.50;99.90;;;;;;4144232;28;20421;-66
2022/09/09 08:17:38;;;;;;;17.20;13.20;;;18.50;99.90;;;;;;4145259;28;20478;-63
2022/09/09 08:19:39;;;;;;;15.93;12.52;;;18.50;99.90;;;;;;4144154;28;20078;-62
2022/09/09 08:21:42;;;;;;;17.02;11.20;;;18.60;99.90;;;;;;4144247;28;20521;-63
2022/09/09 08:23:46;;;;;;;13.45;11.38;;;18.70;99.90;;;;;;4144621;28;20092;-64
2022/09/09 08:25:48;;;;;;;13.15;11.32;;;18.90;99.90;;;;;;4144202;28;20026;-63
2022/09/09 08:27:50;;;;;;;13.75;11.30;;;19.00;99.90;;;;;;4144033;28;20080;-63
2022/09/09 08:29:51;;;;;;;15.77;11.23;;;19.20;99.90;;;;;;4142701;28;20034;-64
2022/09/09 08:31:54;;;;;;;14.45;12.20;;;19.30;99.90;;;;;;4144334;28;20046;-65
2022/09/09 08:33:59;;;;;;;11.32;10.00;;;19.30;99.90;;;;;;4143745;28;20092;-64
2022/09/09 08:36:00;;;;;;;11.73;8.98;;;19.40;99.90;;;;;;4144702;28;20033;-65
2022/09/09 08:38:02;;;;;;;11.32;9.20;;;19.50;99.90;;;;;;4143600;28;20030;-65
2022/09/09 08:40:03;;;;;;;12.70;8.98;;;19.40;99.90;;;;;;4144947;28;20530;-64
2022/09/09 08:42:34;;;;;;;11.45;8.40;;;19.30;99.90;;;;;;4143926;28;20486;-64
2022/09/09 08:44:57;;;;;;;12.43;8.50;;;19.40;99.90;;;;;;4144644;28;20057;-64
2022/09/09 08:46:58;;;;;;;13.15;8.20;;;19.60;99.90;;;;;;4143609;28;20061;-66
2022/09/09 08:49:18;;;;;;;11.05;8.95;;;19.60;99.90;;;;;;4144954;28;20038;-64
2022/09/09 08:51:20;;;;;;;13.00;9.43;;;19.60;99.90;;;;;;4143185;28;20050;-65
2022/09/09 08:53:30;;;;;;;11.98;9.43;;;19.60;99.90;;;;;;4144860;28;20085;-64
2022/09/09 08:55:46;;;;;;;9.40;8.00;;;19.60;99.90;;;;;;4143810;28;20099;-66
2022/09/09 08:57:49;;;;;;;13.38;9.68;;;19.50;99.90;;;;;;4144745;28;20429;-63
2022/09/09 08:59:50;;;;;;;12.20;8.80;;;19.60;99.90;;;;;;4143757;28;20080;-63
2022/09/09 09:02:17;;;;;;;14.77;9.48;;;19.50;99.90;;;;;;4144622;28;20092;-63
2022/09/09 09:04:41;;;;;;;12.43;9.48;;;19.50;99.90;;;;;;4143576;28;20092;-64
2022/09/09 09:07:09;;;;;;;14.45;10.52;;;19.50;99.90;;;;;;4144180;28;20433;-64
2022/09/09 09:09:38;;;;;;;11.85;9.40;;;19.50;99.90;;;;;;4144333;28;20621;-64
2022/09/09 09:12:03;;;;;;;10.82;9.05;;;19.50;99.90;;;;;;4143520;28;20026;-67
2022/09/09 09:14:24;;;;;;;13.48;9.43;;;19.40;99.90;;;;;;4144757;28;20379;-67
2022/09/09 09:17:06;;;;;;;11.77;9.55;;;19.30;99.90;;;;;;4143514;28;20120;-64
2022/09/09 09:19:14;;;;;;;10.45;8.90;;;19.20;99.90;;;;;;4144917;28;20054;-64
2022/09/09 09:21:33;;;;;;;10.52;8.68;;;19.30;99.90;;;;;;4143298;28;20060;-67
2022/09/09 09:23:48;;;;;;;9.80;8.25;;;19.30;99.90;;;;;;4144623;28;20046;-65
2022/09/09 09:25:55;;;;;;;11.93;8.27;;;19.30;99.90;;;;;;4143689;28;20054;-64
2022/09/09 09:28:06;;;;;;;14.10;9.02;;;19.30;99.90;;;;;;4144632;28;20418;-63
2022/09/09 09:30:17;;;;;;;13.45;8.43;;;19.30;99.90;;;;;;4143304;28;20029;-65
2022/09/09 09:32:20;;;;;;;12.40;9.25;;;19.30;99.90;;;;;;4144570;28;20057;-63
2022/09/09 09:34:24;;;;;;;17.75;8.98;;;19.30;99.90;;;;;;4143362;28;20092;-63
2022/09/09 09:36:45;;;;;;;18.50;10.63;;;19.40;99.90;;;;;;4144257;28;20527;-63
2022/09/09 09:38:57;;;;;;;12.40;9.45;;;19.30;99.90;;;;;;4143499;28;20026;-63
2022/09/09 09:41:00;;;;;;;13.32;10.05;;;19.30;99.90;;;;;;4144622;28;20556;-64
2022/09/09 09:43:01;;;;;;;22.65;9.48;;;19.30;99.90;;;;;;4143580;28;20592;-64
2022/09/09 09:45:31;;;;;;;11.10;9.43;;;19.30;99.90;;;;;;4144951;28;20111;-63
2022/09/09 09:47:32;;;;;;;15.77;10.05;;;19.30;99.90;;;;;;4145310;28;20045;-65
2022/09/09 09:49:34;;;;;;;14.35;9.77;;;19.40;99.90;;;;;;4147689;28;20033;-64
2022/09/09 09:51:36;;;;;;;11.93;9.52;;;19.40;99.90;;;;;;4145638;28;20433;-63
2022/09/09 09:53:38;;;;;;;14.57;10.05;;;19.50;99.90;;;;;;4147110;28;20080;-65
2022/09/09 09:55:52;;;;;;;14.88;10.55;;;19.50;99.90;;;;;;4146094;28;20033;-63
2022/09/09 09:57:54;;;;;;;13.57;10.50;;;19.50;99.90;;;;;;4147355;28;20084;-66
2022/09/09 10:00:13;;;;;;;13.13;10.93;;;19.60;99.90;;;;;;4146144;28;20026;-63
2022/09/09 10:02:17;;;;;;;15.68;11.13;;;19.60;99.90;;;;;;4147198;28;20478;-62
2022/09/09 10:04:23;;;;;;;15.25;11.40;;;19.60;99.90;;;;;;4146225;28;20059;-65
2022/09/09 10:06:37;;;;;;;13.27;11.45;;;19.60;99.90;;;;;;4146745;28;20413;-64
2022/09/09 10:08:48;;;;;;;13.95;11.80;;;19.60;99.90;;;;;;4145869;28;20042;-62
2022/09/09 10:11:17;;;;;;;14.60;10.90;;;19.50;99.90;;;;;;4146815;28;20021;-62
2022/09/09 10:13:21;;;;;;;12.32;10.60;;;19.50;99.90;;;;;;4146040;28;20437;-65
2022/09/09 10:15:41;;;;;;;15.98;11.27;;;19.40;99.90;;;;;;4146464;28;20030;-65
2022/09/09 10:18:06;;;;;;;15.05;10.82;;;19.40;99.90;;;;;;4145401;28;20088;-66
2022/09/09 10:20:18;;;;;;;12.38;9.95;;;19.40;99.90;;;;;;4146632;28;20052;-63
2022/09/09 10:22:33;;;;;;;20.52;11.88;;;19.40;99.90;;;;;;4145857;28;20081;-65
2022/09/09 10:25:11;;;;;;;13.68;11.77;;;19.40;99.90;;;;;;4146325;28;20034;-65
2022/09/09 10:27:40;;;;;;;13.55;12.15;;;19.40;99.90;;;;;;4146320;28;20037;-63
2022/09/09 10:29:44;;;;;;;13.52;10.80;;;19.50;99.90;;;;;;4145273;28;20034;-63
2022/09/09 10:32:19;;;;;;;13.48;9.88;;;19.40;99.90;;;;;;4146483;28;20418;-65
2022/09/09 10:34:26;;;;;;;16.42;10.85;;;19.40;99.90;;;;;;4145352;28;20026;-64
2022/09/09 10:36:29;;;;;;;13.68;12.00;;;19.40;99.90;;;;;;4146672;28;20446;-64
2022/09/09 10:38:43;;;;;;;16.17;11.80;;;19.50;99.90;;;;;;4145521;28;20022;-65
2022/09/09 10:41:09;;;;;;;12.98;10.73;;;19.50;99.90;;;;;;4146557;28;20033;-67
2022/09/09 10:43:31;;;;;;;15.18;11.55;;;19.60;99.90;;;;;;4143949;28;20049;-65
2022/09/09 10:45:48;;;;;;;17.75;12.25;;;19.60;99.90;;;;;;4146403;28;20076;-64